Archival Weather

Pocono Mountains Rgnl

Mount Pocono, Pennsylvania (KMPO)

Report from: Tuesday, May 21, 2024 12:53 AM EDT
Current time: Monday, July 22, 2024 6:24 AM EDT

Current weather – Weather history – Daily summaries
Weather forecast

Temperature14.4°C (57.9°F)
Dew point12.8°C (55.0°F)
Winds Calm
Visibility10 mi. (16.1 km)
Clouds Sky clear
Altimeter30.02 in.Hg (1017 mB)
Relative humidity90 %
Density altitude49 ft. (15 m)
Sea-level pressure101.6 kPa (1016 mB, 30.00 in.Hg)
Max temp last 24 hours24.4°C (75.9°F)
Min temp last 24 hours8.3°C (46.9°F)
Remarks Fully automated report
Automated weather observing station with precipitation discriminator
Flight conditions Visual Meteorological Conditions
Raw dataKMPO 210453Z AUTO 00000KT 10SM CLR 14/13 A3002 RMK AO2 SLP158 T01440128 402440083
An error has occurred. This application may no longer respond until reloaded. Reload 🗙